Time;durP1;ratioP1;P1;durP2;ratioP2;P2;SDS_P1;SDS_P2;PMS_P1;PMS_P2;Temp;Humidity;BMP_temperature;BMP_pressure;BME280_temperature;BME280_humidity;BME280_pressure;Samples;Min_cycle;Max_cycle;Signal;HPM_P1;HPM_P2
2022/12/29 00:01:37;;;;;;;15.43;7.90;;;;;;;5.93;84.39;100391.84;1701689;83;26295;-77
2022/12/29 00:04:04;;;;;;;15.45;8.88;;;;;;;5.94;84.43;100387.72;1724244;81;25886;-77
2022/12/29 00:06:31;;;;;;;15.53;8.78;;;;;;;5.94;84.31;100388.20;1720378;83;27631;-77
2022/12/29 00:08:57;;;;;;;13.18;8.18;;;;;;;5.92;84.35;100389.68;1693523;83;25882;-77
2022/12/29 00:11:27;;;;;;;16.93;8.68;;;;;;;5.91;84.19;100382.72;1698223;84;25766;-77
2022/12/29 00:16:42;;;;;;;16.42;8.50;;;;;;;5.91;84.30;100385.38;1720828;83;25886;-78
2022/12/29 00:35:07;;;;;;;15.38;8.90;;;;;;;5.90;84.31;100380.23;1708467;83;27439;-77
2022/12/29 00:35:26;;;;;;;13.05;7.97;;;;;;;5.93;84.19;100388.70;1734481;81;25714;-77
2022/12/29 00:46:10;;;;;;;15.23;8.80;;;;;;;5.91;84.25;100369.91;1702383;83;27446;-78
2022/12/29 00:51:21;;;;;;;14.80;8.15;;;;;;;5.94;84.18;100366.94;1710259;83;25840;-77
2022/12/29 00:53:47;;;;;;;14.73;8.55;;;;;;;5.92;84.14;100364.42;1726090;82;26656;-77
2022/12/29 00:56:14;;;;;;;14.35;7.58;;;;;;;5.94;84.15;100362.95;1722048;82;25800;-77
2022/12/29 00:58:40;;;;;;;14.80;7.67;;;;;;;5.91;84.07;100353.47;1742016;81;27462;-77
2022/12/29 01:01:09;;;;;;;11.73;7.62;;;;;;;5.92;84.10;100350.33;1702749;82;25679;-77
2022/12/29 01:03:37;;;;;;;11.90;7.30;;;;;;;5.92;84.02;100347.67;1740138;81;25748;-77
2022/12/29 01:06:07;;;;;;;13.35;7.90;;;;;;;5.93;84.08;100347.50;1728699;81;26234;-77
2022/12/29 01:08:34;;;;;;;13.10;7.78;;;;;;;5.93;84.02;100348.83;1739290;80;25866;-77
2022/12/29 01:11:07;;;;;;;11.68;8.03;;;;;;;5.94;84.13;100346.52;1723941;82;27846;-77
2022/12/29 01:13:35;;;;;;;13.70;7.53;;;;;;;5.95;83.88;100346.00;1725375;82;25936;-77
2022/12/29 01:16:02;;;;;;;13.03;8.00;;;;;;;5.94;83.99;100343.02;1702406;82;25308;-77
2022/12/29 01:18:28;;;;;;;11.12;7.17;;;;;;;5.94;83.98;100338.54;1674957;84;25922;-77
2022/12/29 01:21:04;;;;;;;13.00;7.55;;;;;;;5.94;83.89;100334.55;1695735;83;26011;-77
2022/12/29 01:23:31;;;;;;;13.30;7.65;;;;;;;5.95;83.97;100334.03;1687604;83;28306;-77
2022/12/29 01:26:04;;;;;;;12.68;7.17;;;;;;;5.94;83.94;100337.21;1699764;83;26528;-77
2022/12/29 01:28:30;;;;;;;12.18;7.53;;;;;;;5.96;84.08;100330.39;1694826;83;25290;-77
2022/12/29 01:31:01;;;;;;;13.80;8.15;;;;;;;5.95;84.15;100320.25;1697930;83;25780;-78
2022/12/29 01:33:27;;;;;;;15.20;7.33;;;;;;;5.95;84.15;100324.23;1683654;83;25917;-77
2022/12/29 01:35:53;;;;;;;12.95;7.25;;;;;;;5.96;84.39;100305.14;1696422;83;27475;-77
2022/12/29 01:38:20;;;;;;;12.43;6.97;;;;;;;5.97;84.50;100316.09;1695812;83;25892;-77
2022/12/29 01:40:47;;;;;;;13.45;7.28;;;;;;;5.94;84.41;100311.95;1711274;83;25947;-77
2022/12/29 01:43:14;;;;;;;12.58;6.45;;;;;;;5.91;84.54;100313.60;1671086;84;25930;-77
2022/12/29 01:45:46;;;;;;;11.97;6.97;;;;;;;5.90;84.57;100311.11;1688880;83;25836;-77
2022/12/29 01:48:15;;;;;;;14.13;7.67;;;;;;;5.87;84.72;100311.43;1672497;84;29405;-77
2022/12/29 01:50:47;;;;;;;12.15;6.83;;;;;;;5.86;84.93;100313.77;1687009;83;25332;-77
2022/12/29 01:53:21;;;;;;;10.78;6.75;;;;;;;5.85;84.99;100321.39;1690550;83;26001;-77
2022/12/29 01:55:56;;;;;;;9.93;5.85;;;;;;;5.83;85.06;100320.70;1702783;82;25773;-77
2022/12/29 01:58:27;;;;;;;9.00;6.30;;;;;;;5.82;85.18;100317.20;1672437;84;25902;-77
2022/12/29 02:00:54;;;;;;;11.30;6.72;;;;;;;5.79;85.24;100312.23;1699636;83;27544;-77
2022/12/29 02:03:23;;;;;;;10.72;6.42;;;;;;;5.79;85.30;100311.39;1705848;83;25447;-77
2022/12/29 02:06:08;;;;;;;11.28;6.45;;;;;;;5.78;85.40;100309.22;1686263;83;26376;-77
2022/12/29 02:08:36;;;;;;;15.50;7.03;;;;;;;5.77;85.32;100319.53;1711694;83;26440;-77
2022/12/29 02:11:03;;;;;;;10.18;5.97;;;;;;;5.76;85.34;100313.88;1704457;83;25741;-77
2022/12/29 02:13:31;;;;;;;11.33;6.20;;;;;;;5.77;85.40;100316.03;1700584;83;28433;-77
2022/12/29 02:16:31;;;;;;;11.83;6.65;;;;;;;5.77;85.50;100311.56;1680830;83;25892;-77
2022/12/29 02:19:31;;;;;;;11.50;5.55;;;;;;;5.77;85.26;100310.72;1724559;82;25776;-77
2022/12/29 02:22:30;;;;;;;9.05;5.95;;;;;;;5.76;85.36;100312.54;1741042;81;25337;-77
2022/12/29 02:25:17;;;;;;;9.83;5.80;;;;;;;5.73;85.49;100314.19;1667265;83;25882;-77
2022/12/29 02:27:51;;;;;;;10.82;6.08;;;;;;;5.73;85.62;100314.70;1710285;83;27663;-77
2022/12/29 02:31:04;;;;;;;11.57;6.40;;;;;;;5.70;85.61;100322.50;1712721;83;25340;-77
2022/12/29 02:34:01;;;;;;;8.58;5.80;;;;;;;5.69;85.87;100318.68;1739335;81;26169;-77
2022/12/29 02:36:49;;;;;;;7.50;4.97;;;;;;;5.65;86.00;100318.64;1718536;82;26370;-77
2022/12/29 02:39:42;;;;;;;12.47;5.78;;;;;;;5.62;86.30;100317.66;1698750;81;26565;-77
2022/12/29 02:42:17;;;;;;;8.38;4.87;;;;;;;5.60;86.41;100316.50;1728641;81;27470;-77
2022/12/29 02:44:51;;;;;;;8.98;5.50;;;;;;;5.55;86.68;100306.84;1723075;81;25967;-77
2022/12/29 02:47:55;;;;;;;10.53;5.67;;;;;;;5.54;86.88;100302.51;1713413;83;26070;-77
2022/12/29 02:50:33;;;;;;;9.60;5.58;;;;;;;5.55;87.17;100284.27;1707678;83;26427;-77
2022/12/29 02:53:04;;;;;;;9.08;5.42;;;;;;;5.58;87.42;100276.47;1752096;80;26330;-77
2022/12/29 02:55:30;;;;;;;7.55;4.53;;;;;;;5.57;87.46;100265.49;1750600;80;27463;-77
2022/12/29 02:58:22;;;;;;;9.40;4.80;;;;;;;5.56;87.54;100257.20;1737853;81;25783;-77
2022/12/29 03:01:09;;;;;;;7.87;4.83;;;;;;;5.54;87.63;100245.39;1728747;81;25747;-77
2022/12/29 03:04:05;;;;;;;11.35;5.92;;;;;;;5.53;87.87;100234.94;1718874;82;26257;-77
2022/12/29 03:06:37;;;;;;;11.53;4.95;;;;;;;5.51;87.92;100212.53;1732000;81;26441;-77
2022/12/29 03:09:27;;;;;;;12.50;4.95;;;;;;;5.48;88.10;100210.19;1730986;82;28271;-77
2022/12/29 03:12:10;;;;;;;9.10;5.47;;;;;;;5.46;88.24;100214.84;1733359;81;26576;-77
2022/12/29 03:17:59;;;;;;;8.93;4.83;;;;;;;5.42;88.58;100294.52;1728679;81;26386;-77
2022/12/29 03:20:34;;;;;;;8.90;4.75;;;;;;;5.40;88.78;100275.25;1727120;81;25941;-76
2022/12/29 03:23:05;;;;;;;7.65;5.15;;;;;;;5.40;88.87;100265.47;1707493;82;27546;-77
2022/12/29 03:25:40;;;;;;;10.75;5.42;;;;;;;5.42;88.83;100270.61;1728715;82;25796;-77
2022/12/29 03:28:17;;;;;;;7.78;5.15;;;;;;;5.42;88.91;100258.17;1724541;82;25827;-77
2022/12/29 03:30:47;;;;;;;8.50;4.47;;;;;;;5.45;88.88;100263.66;1730049;81;25866;-77
2022/12/29 03:33:19;;;;;;;9.10;4.80;;;;;;;5.46;88.80;100249.37;1724703;81;25922;-77
2022/12/29 03:35:48;;;;;;;10.72;4.87;;;;;;;5.47;88.73;100253.70;1729972;82;27656;-76
2022/12/29 03:38:21;;;;;;;9.63;5.23;;;;;;;5.48;88.64;100240.25;1731798;81;26367;-77
2022/12/29 03:40:52;;;;;;;9.13;5.00;;;;;;;5.48;88.57;100238.92;1729613;82;26001;-77
2022/12/29 03:43:19;;;;;;;8.98;4.55;;;;;;;5.49;88.57;100237.09;1728692;81;26494;-77
2022/12/29 03:45:46;;;;;;;7.50;5.10;;;;;;;5.52;88.54;100243.92;1731376;82;26497;-77
2022/12/29 03:48:12;;;;;;;8.00;5.53;;;;;;;5.51;88.43;100240.42;1728605;81;28244;-77
2022/12/29 03:50:40;;;;;;;13.43;4.72;;;;;;;5.53;88.35;100230.95;1731531;81;25836;-77
2022/12/29 03:53:07;;;;;;;7.25;4.22;;;;;;;5.54;88.36;100233.44;1708190;82;26180;-77
2022/12/29 03:55:33;;;;;;;7.90;4.12;;;;;;;5.53;88.15;100224.31;1722553;82;25868;-77
2022/12/29 03:58:00;;;;;;;8.60;4.78;;;;;;;5.52;88.19;100228.78;1728862;81;25601;-77
2022/12/29 04:00:29;;;;;;;9.78;4.60;;;;;;;5.54;88.12;100230.78;1726808;82;27552;-77
2022/12/29 04:02:55;;;;;;;6.25;4.53;;;;;;;5.56;88.02;100238.09;1698194;82;25825;-76
2022/12/29 04:05:23;;;;;;;6.45;4.40;;;;;;;5.56;87.97;100244.73;1733266;82;25820;-77
2022/12/29 04:07:51;;;;;;;6.28;4.30;;;;;;;5.56;87.76;100220.02;1728040;81;26418;-77
2022/12/29 04:10:18;;;;;;;6.97;4.47;;;;;;;5.55;87.65;100215.19;1723274;82;26388;-77
2022/12/29 04:12:46;;;;;;;7.50;4.33;;;;;;;5.56;87.54;100196.10;1720559;82;28747;-77
2022/12/29 04:15:14;;;;;;;7.35;4.20;;;;;;;5.55;87.56;100204.56;1707630;82;25806;-77
2022/12/29 04:17:40;;;;;;;6.95;3.95;;;;;;;5.56;87.45;100222.14;1720888;82;26232;-77
2022/12/29 04:23:01;;;;;;;7.78;4.65;;;;;;;5.56;87.34;100209.39;1726864;82;25785;-77
2022/12/29 04:25:28;;;;;;;7.17;4.50;;;;;;;5.56;87.31;100207.53;1735923;81;27496;-77
2022/12/29 04:27:57;;;;;;;6.67;4.08;;;;;;;5.56;87.22;100211.52;1726210;80;25756;-76
2022/12/29 04:30:36;;;;;;;10.48;4.60;;;;;;;5.57;87.11;100209.70;1742322;80;25950;-77
2022/12/29 04:33:05;;;;;;;8.88;4.97;;;;;;;5.54;86.97;100197.58;1705465;83;26239;-77
2022/12/29 04:35:31;;;;;;;6.90;4.30;;;;;;;5.57;87.06;100189.78;1720346;81;25759;-77
2022/12/29 04:37:58;;;;;;;7.20;4.45;;;;;;;5.57;86.96;100190.61;1742249;81;27459;-76
2022/12/29 04:40:24;;;;;;;9.33;4.70;;;;;;;5.59;86.93;100179.81;1751078;80;26292;-77
2022/12/29 04:42:51;;;;;;;8.33;4.53;;;;;;;5.59;86.81;100183.80;1719591;83;25852;-76
2022/12/29 04:45:18;;;;;;;7.58;4.10;;;;;;;5.57;86.57;100181.31;1715276;82;25764;-77
2022/12/29 04:47:52;;;;;;;7.97;4.47;;;;;;;5.57;86.59;100173.34;1708490;83;26290;-77
2022/12/29 04:50:23;;;;;;;9.95;4.58;;;;;;;5.59;86.61;100170.52;1680302;83;27493;-77
2022/12/29 04:52:54;;;;;;;8.88;4.62;;;;;;;5.59;86.28;100170.52;1714462;83;25898;-77
2022/12/29 04:55:21;;;;;;;11.85;5.03;;;;;;;5.59;86.20;100164.71;1741763;81;25805;-77
2022/12/29 04:57:47;;;;;;;9.48;4.55;;;;;;;5.60;86.12;100165.55;1740566;81;26383;-77
2022/12/29 05:00:16;;;;;;;10.78;4.55;;;;;;;5.60;86.17;100165.06;1713837;83;25727;-77
2022/12/29 05:02:42;;;;;;;10.20;4.30;;;;;;;5.61;86.03;100165.38;1731782;81;27428;-77
2022/12/29 05:05:09;;;;;;;9.53;4.70;;;;;;;5.60;85.93;100159.75;1711672;82;26587;-77
2022/12/29 05:07:37;;;;;;;7.92;5.20;;;;;;;5.61;85.85;100172.02;1734099;81;25838;-77
2022/12/29 05:10:06;;;;;;;9.25;5.20;;;;;;;5.62;85.79;100168.88;1741610;81;25757;-77
2022/12/29 05:12:34;;;;;;;7.60;4.95;;;;;;;5.62;85.79;100168.38;1741659;81;25846;-77
2022/12/29 05:15:02;;;;;;;9.95;4.80;;;;;;;5.62;85.63;100157.75;1735730;81;27465;-77
2022/12/29 05:17:29;;;;;;;10.05;5.40;;;;;;;5.63;85.56;100150.59;1743097;81;26349;-77
2022/12/29 05:19:57;;;;;;;8.98;5.55;;;;;;;5.63;85.43;100142.63;1710743;83;25860;-77
2022/12/29 05:22:24;;;;;;;7.60;4.47;;;;;;;5.62;85.29;100156.42;1704906;82;25838;-77
2022/12/29 05:24:51;;;;;;;8.98;5.42;;;;;;;5.61;85.21;100153.42;1734770;81;25718;-76
2022/12/29 05:27:18;;;;;;;9.88;4.87;;;;;;;5.61;85.11;100145.94;1714088;83;28293;-77
2022/12/29 05:29:46;;;;;;;9.80;5.40;;;;;;;5.61;85.00;100138.81;1718878;81;26337;-76
2022/12/29 05:32:14;;;;;;;9.33;5.58;;;;;;;5.62;85.00;100141.81;1742193;81;25808;-77
2022/12/29 05:34:42;;;;;;;9.58;5.42;;;;;;;5.64;84.97;100149.61;1688947;83;25913;-77
2022/12/29 05:37:09;;;;;;;9.70;4.70;;;;;;;5.64;84.88;100138.98;1713996;83;25738;-77
2022/12/29 05:39:35;;;;;;;8.48;5.50;;;;;;;5.64;84.87;100138.48;1726012;81;27421;-77
2022/12/29 05:42:03;;;;;;;8.98;5.28;;;;;;;5.65;84.86;100139.30;1724039;82;25778;-77
2022/12/29 05:44:34;;;;;;;8.28;5.05;;;;;;;5.64;84.82;100138.48;1725432;81;25730;-77
2022/12/29 05:47:19;;;;;;;11.40;5.05;;;;;;;5.64;84.90;100142.47;1727306;82;25778;-77
2022/12/29 05:49:57;;;;;;;8.53;5.35;;;;;;;5.67;84.92;100135.97;1670392;84;25907;-77
2022/12/29 05:52:40;;;;;;;10.72;5.17;;;;;;;5.67;84.88;100128.84;1640064;86;28363;-77
2022/12/29 05:55:07;;;;;;;9.85;5.58;;;;;;;5.68;84.88;100127.86;1698130;82;25883;-77
2022/12/29 05:57:35;;;;;;;13.65;5.72;;;;;;;5.70;84.98;100136.98;1700922;82;25858;-77
2022/12/29 06:00:14;;;;;;;14.25;6.03;;;;;;;5.72;84.98;100134.98;1704736;82;25980;-77
2022/12/29 06:02:45;;;;;;;11.63;6.42;;;;;;;5.73;84.93;100134.00;1723488;82;25963;-77
2022/12/29 06:05:13;;;;;;;9.28;5.08;;;;;;;5.74;84.85;100136.98;1725264;82;27453;-77
2022/12/29 06:07:40;;;;;;;11.88;5.78;;;;;;;5.74;84.54;100140.47;1716865;82;25704;-77
2022/12/29 06:10:07;;;;;;;6.97;4.83;;;;;;;5.75;84.58;100141.31;1725745;82;25891;-77
2022/12/29 06:12:35;;;;;;;9.28;5.08;;;;;;;5.77;84.44;100142.80;1727871;81;25771;-77
2022/12/29 06:15:02;;;;;;;10.95;5.08;;;;;;;5.77;84.37;100145.47;1734935;82;26434;-77
2022/12/29 06:17:28;;;;;;;8.30;4.78;;;;;;;5.78;84.35;100144.94;1733914;82;27513;-77
2022/12/29 06:19:55;;;;;;;9.10;5.17;;;;;;;5.79;84.36;100143.47;1702505;83;25868;-77
2022/12/29 06:22:22;;;;;;;11.78;5.65;;;;;;;5.80;84.36;100138.47;1710946;83;25759;-77
2022/12/29 06:24:48;;;;;;;12.98;5.90;;;;;;;5.79;84.17;100138.16;1705809;83;26666;-77
2022/12/29 06:27:15;;;;;;;12.80;6.15;;;;;;;5.78;84.21;100147.11;1695061;83;25810;-77
2022/12/29 06:29:42;;;;;;;14.00;5.20;;;;;;;5.78;84.17;100147.11;1739382;81;28417;-77
2022/12/29 06:32:09;;;;;;;11.50;5.62;;;;;;;5.78;84.21;100147.59;1702885;83;25608;-77
2022/12/29 06:34:37;;;;;;;14.33;5.50;;;;;;;5.78;84.21;100147.59;1709170;82;26063;-77
2022/12/29 06:37:04;;;;;;;10.68;4.83;;;;;;;5.79;84.29;100151.94;1727764;82;26505;-77
2022/12/29 06:39:32;;;;;;;8.95;4.95;;;;;;;5.80;84.24;100154.41;1712091;82;26391;-77
2022/12/29 06:42:06;;;;;;;12.07;4.83;;;;;;;5.82;84.19;100143.11;1688835;83;27470;-77
2022/12/29 06:44:41;;;;;;;11.93;5.97;;;;;;;5.84;84.02;100146.47;1708108;82;26075;-77
2022/12/29 06:47:10;;;;;;;7.00;4.65;;;;;;;5.85;83.96;100144.16;1716960;82;25941;-77
2022/12/29 06:49:37;;;;;;;8.78;4.85;;;;;;;5.87;84.02;100130.69;1712878;82;26439;-78
2022/12/29 06:52:04;;;;;;;7.58;4.70;;;;;;;5.87;83.89;100138.66;1718035;82;26002;-77
2022/12/29 06:54:31;;;;;;;10.53;5.03;;;;;;;5.89;83.99;100136.66;1709986;83;27463;-77
2022/12/29 06:56:58;;;;;;;9.15;4.65;;;;;;;5.88;83.93;100132.36;1722922;81;25898;-77
2022/12/29 06:59:25;;;;;;;12.45;4.60;;;;;;;5.91;83.95;100139.49;1731561;81;25584;-78
2022/12/29 07:01:52;;;;;;;7.75;5.15;;;;;;;5.92;83.75;100141.66;1736562;81;26240;-77
2022/12/29 07:04:19;;;;;;;7.83;4.50;;;;;;;5.92;83.69;100135.02;1693543;83;26536;-77
2022/12/29 07:06:45;;;;;;;8.00;4.65;;;;;;;5.94;83.79;100137.00;1709048;83;27422;-77
2022/12/29 07:09:12;;;;;;;8.00;5.08;;;;;;;5.95;83.56;100138.64;1699033;83;25883;-78
2022/12/29 07:11:38;;;;;;;8.23;4.83;;;;;;;5.94;83.56;100135.18;1710517;83;26247;-77
2022/12/29 07:14:05;;;;;;;7.40;4.92;;;;;;;5.95;83.57;100130.18;1712554;83;25812;-77
2022/12/29 07:16:34;;;;;;;8.90;5.10;;;;;;;5.96;83.54;100130.52;1713883;83;25875;-77
2022/12/29 07:19:00;;;;;;;10.58;5.17;;;;;;;5.96;83.53;100114.58;1734939;81;28273;-77
2022/12/29 07:21:26;;;;;;;13.00;5.35;;;;;;;5.98;83.53;100119.22;1742373;81;25741;-78
2022/12/29 07:23:54;;;;;;;8.98;5.20;;;;;;;5.98;83.56;100116.56;1730150;82;25812;-77
2022/12/29 07:26:21;;;;;;;9.63;5.42;;;;;;;5.99;83.51;100120.03;1725228;82;25610;-77
2022/12/29 07:28:47;;;;;;;9.80;5.05;;;;;;;6.01;83.39;100122.02;1741447;81;26509;-77
2022/12/29 07:31:21;;;;;;;8.45;5.33;;;;;;;6.02;83.35;100125.86;1710204;83;27454;-77
2022/12/29 07:33:47;;;;;;;7.22;4.45;;;;;;;6.06;83.47;100129.83;1739747;81;25943;-77
2022/12/29 07:36:15;;;;;;;9.08;4.97;;;;;;;6.07;83.34;100124.02;1753507;80;25856;-77
2022/12/29 07:38:42;;;;;;;10.25;5.00;;;;;;;6.10;83.23;100121.01;1713940;83;26312;-77
2022/12/29 07:41:09;;;;;;;8.80;5.00;;;;;;;6.11;83.13;100117.36;1711938;83;25769;-77
2022/12/29 07:43:36;;;;;;;8.05;4.80;;;;;;;6.13;82.94;100129.98;1746340;81;27460;-77
2022/12/29 07:46:08;;;;;;;7.80;5.28;;;;;;;6.14;82.89;100115.19;1711924;81;26557;-78
2022/12/29 07:48:35;;;;;;;9.80;5.12;;;;;;;6.15;82.85;100124.84;1727043;82;25504;-77
2022/12/29 07:51:02;;;;;;;9.15;5.40;;;;;;;6.16;82.73;100113.67;1723225;82;25827;-77
2022/12/29 07:53:29;;;;;;;10.35;5.65;;;;;;;6.17;82.57;100114.02;1744627;80;25885;-77
2022/12/29 07:55:56;;;;;;;9.53;5.15;;;;;;;6.19;82.53;100102.71;1721974;82;27446;-77
2022/12/29 07:58:22;;;;;;;9.33;5.25;;;;;;;6.21;82.58;100103.37;1725776;82;25728;-77
2022/12/29 08:00:55;;;;;;;6.62;5.10;;;;;;;6.21;82.46;100093.56;1720515;82;25750;-77
2022/12/29 08:03:23;;;;;;;7.58;4.90;;;;;;;6.23;82.55;100102.20;1697555;83;26374;-77
2022/12/29 08:05:49;;;;;;;9.65;5.58;;;;;;;6.26;82.43;100105.52;1742950;80;25771;-77
2022/12/29 08:08:16;;;;;;;7.85;4.60;;;;;;;6.26;82.27;100102.36;1729733;82;27526;-77
2022/12/29 08:10:42;;;;;;;9.18;5.30;;;;;;;6.28;82.00;100111.50;1729957;82;26412;-77
2022/12/29 08:13:09;;;;;;;8.30;5.37;;;;;;;6.27;81.83;100113.31;1709761;83;37203;-77
2022/12/29 08:15:37;;;;;;;10.68;5.55;;;;;;;6.29;81.86;100117.96;1750975;80;25470;-77
2022/12/29 08:18:04;;;;;;;7.33;4.92;;;;;;;6.32;81.70;100122.12;1742381;80;25734;-77
2022/12/29 08:20:30;;;;;;;8.80;5.10;;;;;;;6.36;81.79;100132.74;1738103;81;27465;-77
2022/12/29 08:22:57;;;;;;;9.28;4.97;;;;;;;6.38;81.63;100128.91;1694315;82;25884;-77
2022/12/29 08:25:23;;;;;;;11.18;5.28;;;;;;;6.41;81.55;100125.92;1723391;82;26486;-77
2022/12/29 08:27:50;;;;;;;8.15;5.12;;;;;;;6.44;81.76;100131.38;1712179;83;25816;-77
2022/12/29 08:30:16;;;;;;;8.18;5.12;;;;;;;6.47;81.59;100135.03;1735048;81;25830;-77
2022/12/29 08:32:42;;;;;;;8.35;5.22;;;;;;;6.50;81.79;100128.86;1740313;81;27619;-77
2022/12/29 08:35:09;;;;;;;9.68;4.70;;;;;;;6.55;81.77;100133.67;1734016;81;25844;-77
2022/12/29 08:37:35;;;;;;;8.60;4.90;;;;;;;6.58;81.47;100139.50;1738390;81;25714;-77
2022/12/29 08:40:03;;;;;;;6.80;4.58;;;;;;;6.60;81.49;100132.17;1733953;81;26230;-77
2022/12/29 08:42:31;;;;;;;8.38;4.55;;;;;;;6.63;81.47;100134.47;1708997;82;26518;-77
2022/12/29 08:44:58;;;;;;;8.70;5.00;;;;;;;6.68;81.48;100141.44;1715230;83;27479;-77
2022/12/29 08:47:25;;;;;;;7.40;4.50;;;;;;;6.72;81.51;100140.09;1726342;82;25786;-77
2022/12/29 08:49:52;;;;;;;7.65;4.70;;;;;;;6.74;81.33;100135.42;1715440;82;25829;-78
2022/12/29 08:52:19;;;;;;;8.20;4.78;;;;;;;6.77;81.08;100135.09;1736228;81;26442;-77
2022/12/29 08:54:45;;;;;;;9.98;4.92;;;;;;;6.81;81.21;100129.74;1740814;81;25879;-77
2022/12/29 08:57:11;;;;;;;9.45;4.90;;;;;;;6.84;81.19;100129.91;1727128;81;28337;-77
2022/12/29 08:59:39;;;;;;;8.73;4.80;;;;;;;6.86;81.10;100127.37;1714909;83;26497;-77
2022/12/29 09:02:12;;;;;;;8.13;5.10;;;;;;;6.87;81.05;100119.72;1726649;82;26467;-77
2022/12/29 09:04:39;;;;;;;10.85;5.85;;;;;;;6.89;80.77;100127.52;1730024;82;25807;-77
2022/12/29 09:07:05;;;;;;;12.70;6.12;;;;;;;6.89;80.89;100127.03;1712963;82;25782;-77
2022/12/29 09:09:33;;;;;;;9.35;5.50;;;;;;;6.93;80.85;100131.49;1707725;83;28556;-77
2022/12/29 09:11:59;;;;;;;9.28;4.87;;;;;;;6.93;80.48;100118.18;1711914;82;25857;-76
2022/12/29 09:14:25;;;;;;;8.33;5.20;;;;;;;6.94;80.56;100130.50;1716309;83;26155;-76
2022/12/29 09:19:38;;;;;;;8.40;5.10;;;;;;;6.97;80.47;100125.65;1749586;81;26273;-76
2022/12/29 09:22:05;;;;;;;7.60;4.83;;;;;;;6.99;80.36;100126.83;1742786;80;28133;-76
2022/12/29 09:24:32;;;;;;;8.40;5.35;;;;;;;7.01;80.32;100124.81;1741316;80;25898;-77
2022/12/29 09:26:58;;;;;;;9.28;5.45;;;;;;;7.03;80.06;100124.94;1747647;81;25831;-76
2022/12/29 09:29:24;;;;;;;8.83;5.40;;;;;;;7.06;80.10;100108.31;1750795;80;25994;-76
2022/12/29 09:31:50;;;;;;;8.63;5.87;;;;;;;7.08;80.15;100106.30;1734334;81;25981;-76
2022/12/29 09:34:17;;;;;;;9.65;4.87;;;;;;;7.10;80.04;100110.95;1700252;82;27466;-77
2022/12/29 09:36:43;;;;;;;6.85;4.70;;;;;;;7.11;80.00;100104.60;1707479;82;25965;-77
2022/12/29 09:39:09;;;;;;;10.10;5.83;;;;;;;7.14;79.79;100104.27;1713297;83;25370;-76
2022/12/29 09:41:50;;;;;;;11.50;5.50;;;;;;;7.16;79.84;100103.58;1741900;81;25885;-76
2022/12/29 09:44:30;;;;;;;7.85;4.65;;;;;;;7.18;79.75;100104.23;1735880;81;26474;-76
2022/12/29 09:47:00;;;;;;;9.35;5.42;;;;;;;7.20;79.63;100100.88;1741741;81;28664;-76
2022/12/29 09:49:39;;;;;;;10.05;5.03;;;;;;;7.22;79.67;100099.70;1714847;82;25675;-76
2022/12/29 09:52:14;;;;;;;8.60;5.25;;;;;;;7.24;79.73;100102.19;1733163;81;25824;-76
2022/12/29 09:55:00;;;;;;;12.65;5.75;;;;;;;7.26;79.92;100097.02;1749666;80;26407;-76
2022/12/29 09:57:44;;;;;;;8.13;5.05;;;;;;;7.31;79.80;100107.14;1705313;83;25806;-77
2022/12/29 10:00:21;;;;;;;8.85;5.92;;;;;;;7.31;79.76;100101.31;1711676;83;27494;-76
2022/12/29 10:03:13;;;;;;;9.95;6.05;;;;;;;7.32;79.53;100094.13;1709891;83;25792;-76
2022/12/29 10:06:07;;;;;;;9.13;5.35;;;;;;;7.33;79.35;100093.97;1719400;82;25807;-76
2022/12/29 10:09:06;;;;;;;8.90;5.33;;;;;;;7.34;79.57;100080.13;1724232;82;25775;-77
2022/12/29 10:12:19;;;;;;;10.53;6.30;;;;;;;7.35;79.79;100073.80;1721508;82;25964;-77
2022/12/29 10:15:15;;;;;;;16.30;6.55;;;;;;;7.36;79.55;100074.95;1721861;82;27463;-77
2022/12/29 10:17:55;;;;;;;10.48;5.60;;;;;;;7.38;79.87;100076.09;1699126;83;26176;-77
2022/12/29 10:20:56;;;;;;;10.53;5.97;;;;;;;7.42;79.67;100065.42;1747237;81;25752;-77
2022/12/29 10:23:36;;;;;;;8.83;5.97;;;;;;;7.43;79.20;100063.08;1704200;83;25790;-77
2022/12/29 10:26:03;;;;;;;8.58;5.80;;;;;;;7.45;79.04;100061.05;1685979;83;25860;-77
2022/12/29 10:28:40;;;;;;;9.43;5.92;;;;;;;7.47;79.30;100053.21;1720429;83;27473;-77
2022/12/29 10:31:16;;;;;;;8.70;5.80;;;;;;;7.50;78.99;100058.19;1742795;81;25923;-77
2022/12/29 10:33:43;;;;;;;9.88;5.70;;;;;;;7.52;78.91;100054.00;1708150;83;25889;-77
2022/12/29 10:36:15;;;;;;;9.18;5.17;;;;;;;7.56;79.31;100052.14;1702029;83;25720;-77
2022/12/29 10:39:03;;;;;;;10.15;6.03;;;;;;;7.60;78.74;100052.59;1736460;81;25799;-78
2022/12/29 10:41:41;;;;;;;10.60;6.10;;;;;;;7.62;79.10;100055.41;1740608;80;28728;-76
2022/12/29 10:44:13;;;;;;;10.55;6.08;;;;;;;7.64;79.15;100053.88;1707434;83;25841;-77
2022/12/29 10:46:40;;;;;;;10.03;6.05;;;;;;;7.67;79.19;100049.04;1743807;81;25803;-77
2022/12/29 10:49:15;;;;;;;16.00;6.70;;;;;;;7.68;78.93;100037.84;1747151;80;26386;-77
2022/12/29 10:51:44;;;;;;;12.28;6.75;;;;;;;7.71;79.10;100038.83;1746573;81;25927;-77
2022/12/29 10:54:19;;;;;;;13.58;7.35;;;;;;;7.73;78.99;100050.97;1740308;81;27508;-77
2022/12/29 10:57:09;;;;;;;11.63;6.47;;;;;;;7.74;78.82;100049.14;1701999;82;26388;-76
2022/12/29 10:59:37;;;;;;;11.70;6.47;;;;;;;7.74;78.49;100053.14;1738906;81;26608;-76
2022/12/29 11:02:17;;;;;;;11.33;6.42;;;;;;;7.72;78.64;100051.13;1708988;83;26232;-77
2022/12/29 11:05:17;;;;;;;10.95;6.55;;;;;;;7.71;78.71;100041.00;1713905;83;25843;-77
2022/12/29 11:07:47;;;;;;;8.73;5.40;;;;;;;7.72;78.53;100049.80;1715130;82;27473;-77
2022/12/29 11:10:40;;;;;;;11.15;6.70;;;;;;;7.70;78.08;100041.99;1713776;82;26509;-77
2022/12/29 11:13:21;;;;;;;11.00;6.30;;;;;;;7.71;78.43;100037.50;1727028;82;25752;-77
2022/12/29 11:15:49;;;;;;;12.35;6.50;;;;;;;7.73;78.47;100046.14;1741875;80;26441;-76
2022/12/29 11:18:33;;;;;;;11.12;5.83;;;;;;;7.72;78.12;100049.30;1745687;81;25735;-76
2022/12/29 11:21:04;;;;;;;11.70;6.70;;;;;;;7.72;78.21;100045.30;1732526;81;27504;-76
2022/12/29 11:23:40;;;;;;;10.65;6.25;;;;;;;7.72;78.28;100043.13;1736542;81;27762;-77
2022/12/29 11:26:22;;;;;;;9.20;6.10;;;;;;;7.72;78.22;100040.47;1730823;80;25914;-76
2022/12/29 11:29:18;;;;;;;10.63;5.75;;;;;;;7.73;78.36;100040.80;1743104;80;26541;-77
2022/12/29 11:31:53;;;;;;;11.83;5.95;;;;;;;7.74;78.22;100045.14;1737076;81;25725;-76
2022/12/29 11:34:34;;;;;;;15.30;6.60;;;;;;;7.76;78.44;100045.79;1741549;81;27454;-76
2022/12/29 11:37:06;;;;;;;9.15;5.70;;;;;;;7.76;78.36;100043.92;1743477;81;25953;-76
2022/12/29 11:39:37;;;;;;;8.78;6.00;;;;;;;7.78;78.10;100046.43;1708114;83;25824;-76
2022/12/29 11:42:09;;;;;;;19.90;6.40;;;;;;;7.79;77.96;100040.91;1707894;83;26252;-76
2022/12/29 11:44:41;;;;;;;12.40;6.35;;;;;;;7.83;78.19;100040.55;1737992;81;25927;-76
2022/12/29 11:47:12;;;;;;;13.22;5.97;;;;;;;7.86;77.96;100038.84;1702662;83;27521;-77
2022/12/29 11:49:39;;;;;;;12.82;6.70;;;;;;;7.90;78.29;100041.46;1720619;82;26395;-76
2022/12/29 11:52:09;;;;;;;13.25;6.42;;;;;;;7.92;78.43;100038.94;1726502;82;25854;-76
2022/12/29 11:54:37;;;;;;;11.45;6.12;;;;;;;7.97;78.32;100038.39;1727882;82;26329;-76
2022/12/29 11:57:16;;;;;;;12.70;6.55;;;;;;;8.00;78.15;100030.04;1708259;83;25999;-76
2022/12/29 11:59:55;;;;;;;13.68;7.05;;;;;;;8.01;78.06;100033.01;1744671;81;27464;-77
2022/12/29 12:02:42;;;;;;;11.55;6.47;;;;;;;8.03;78.12;100032.31;1730786;81;26005;-76
2022/12/29 12:05:30;;;;;;;9.65;6.15;;;;;;;8.04;78.28;100030.79;1735713;81;25749;-77
2022/12/29 12:08:26;;;;;;;11.50;6.28;;;;;;;8.07;78.35;100031.77;1696658;82;26209;-77
2022/12/29 12:11:16;;;;;;;8.70;5.55;;;;;;;8.09;78.19;100035.08;1739100;81;25833;-77
2022/12/29 12:14:03;;;;;;;12.45;5.62;;;;;;;8.08;78.39;100024.11;1696343;82;27451;-77
2022/12/29 12:16:46;;;;;;;11.90;6.03;;;;;;;8.12;78.41;100029.39;1710243;82;26001;-77
2022/12/29 12:19:32;;;;;;;;;;;;;;;8.11;78.18;100027.72;1702208;81;25844;-78
2022/12/29 12:22:22;;;;;;;13.80;7.25;;;;;;;8.13;78.43;100020.36;1725340;82;25915;-77
2022/12/29 12:24:59;;;;;;;13.53;7.78;;;;;;;8.15;78.75;100014.83;1725447;82;26109;-77
2022/12/29 12:27:40;;;;;;;15.15;6.87;;;;;;;8.18;78.90;100006.47;1700556;83;27493;-77
2022/12/29 12:30:20;;;;;;;12.93;7.22;;;;;;;8.21;78.87;100005.58;1741108;81;25783;-77